• Join FlightAware (Why Join?)
  • Login
  • US Flag 
04:07PM EDT


 

Airport Tracker/Info


-or-


 

Live Flight TrackerFlight Track Log ✈ N5946C ✈ 12-Sep-2013 ✈ CYSN - KBUF

Flight Track Log - Related Links

Times and Time Zones

All times are in EDT time to prevent confusion due to time zone crossing. See the N5946C flight status page for this flight to view local times or setup timezone preferences in your user account.

Time Position Orientation Groundspeed Altitude Reporting Facility
EDT Latitude Longitude Course Direction KTS MPH feet Rate Location/Type
09:07AM 43.1667 -79.1833 304° West 90 104 1,100  Level Toronto Center
09:08AM 43.1500 -79.2000 216° Southwest 100 115 2,000 780 Climbing Toronto Center
09:09AM 43.1167 -79.2000 180° South 110 127 2,700 660 Climbing Toronto Center
09:10AM 43.1000 -79.2000 180° South 120 138 3,400 600 Climbing Toronto Center
09:11AM 43.0667 -79.1833 160° South 120 138 4,000 300 Climbing Toronto Center
09:12AM 43.0444 -78.9124 304° West  Level Estimated
09:12AM 43.0667 -79.1167 90° East 150 173 4,000  Level Toronto Center
09:13AM 43.0667 -79.0667 90° East 160 184 4,100  Climbing Toronto Center
09:14AM 43.0833 -79.0000 71° East 170 196 4,100 -60 Level Toronto Center
09:15AM 43.1000 -78.9333 71° East 170 196 4,000 -120 Descending Toronto Center
09:16AM 43.1167 -78.8833 65° Northeast 170 196 3,900  Descending Toronto Center
09:17AM 43.1333 -78.8333 65° Northeast 160 184 4,100  Climbing Toronto Center
09:18AM 43.1500 -78.7667 71° East 160 184 4,000 -60 Descending Toronto Center
09:19AM 43.1500 -78.7000 90° East 160 184 4,000 -300 Level Toronto Center
09:20AM 43.1333 -78.6500 115° Southeast 170 196 3,400 -720 Descending Toronto Center
09:21AM 43.1167 -78.6000 115° Southeast 170 196 2,600 -600 Descending Toronto Center
09:22AM 43.0667 -78.5833 166° South 160 184 2,200 -180 Descending Toronto Center
09:22AM 43.0667 -78.6000 270° West 125 144 2,400 120 Climbing Buffalo TRACON
09:23AM 43.0333 -78.6167 200° South 108 124 2,400  Level Buffalo TRACON
09:24AM 43.0167 -78.6333 216° Southwest 112 129 2,400 -240 Level Buffalo TRACON
09:25AM 42.9833 -78.6667 216° Southwest 119 137 2,000 -600 Descending Buffalo TRACON
09:26AM 42.9667 -78.7000 236° Southwest 99 114 1,300 -720 Descending Buffalo TRACON